Time;durP1;ratioP1;P1;durP2;ratioP2;P2;SDS_P1;SDS_P2;PMS_P1;PMS_P2;Temp;Humidity;BMP_temperature;BMP_pressure;BME280_temperature;BME280_humidity;BME280_pressure;Samples;Min_cycle;Max_cycle;Signal;HPM_P1;HPM_P2
2023/10/12 00:01:25;;;;;;;9.52;3.28;;;;;;;;;;4970712;28;20092;-77
2023/10/12 00:04:04;;;;;;;8.02;3.00;;;;;;;;;;4954233;28;20609;-77
2023/10/12 00:06:30;;;;;;;10.32;2.97;;;;;;;;;;4954382;28;20547;-77
2023/10/12 00:08:55;;;;;;;8.18;2.63;;;;;;;;;;4955562;28;20086;-78
2023/10/12 00:11:21;;;;;;;8.32;3.08;;;;;;;;;;4954385;28;20042;-77
2023/10/12 00:13:51;;;;;;;7.78;3.05;;;;;;;;;;4955505;28;20050;-77
2023/10/12 00:16:19;;;;;;;7.53;3.00;;;;;;;;;;4960512;28;20031;-76
2023/10/12 00:18:45;;;;;;;;;;;;;;;;;;4963125;28;20486;-78
2023/10/12 00:21:14;;;;;;;8.35;3.65;;;;;;;;;;4944560;28;19918;-77
2023/10/12 00:23:41;;;;;;;8.75;2.45;;;;;;;;;;4940320;28;20459;-78
2023/10/12 00:26:06;;;;;;;8.40;3.00;;;;;;;;;;4971053;28;20387;-77
2023/10/12 00:28:38;;;;;;;7.45;2.65;;;;;;;;;;4955316;28;20122;-77
2023/10/12 00:31:16;;;;;;;10.55;2.80;;;;;;;;;;4938711;28;20519;-77
2023/10/12 00:33:42;;;;;;;13.43;4.25;;;;;;;;;;4961766;28;20039;-78
2023/10/12 00:36:19;;;;;;;7.65;2.80;;;;;;;;;;4965209;28;20050;-78
2023/10/12 00:38:46;;;;;;;8.93;2.92;;;;;;;;;;4974444;28;20505;-77
2023/10/12 00:41:14;;;;;;;6.63;2.80;;;;;;;;;;4965168;28;20495;-77
2023/10/12 00:44:29;;;;;;;9.60;3.42;;;;;;;;;;4958167;28;20043;-77
2023/10/12 00:49:26;;;;;;;11.38;2.97;;;;;;;;;;4959391;28;20047;-77
2023/10/12 00:51:54;;;;;;;8.95;2.67;;;;;;;;;;4962373;28;20031;-77
2023/10/12 00:54:27;;;;;;;10.57;2.83;;;;;;;;;;4961804;28;21069;-77
2023/10/12 00:57:02;;;;;;;8.13;2.80;;;;;;;;;;4962445;28;20448;-78
2023/10/12 00:59:31;;;;;;;8.73;2.70;;;;;;;;;;4951040;28;20045;-78
2023/10/12 01:02:08;;;;;;;6.85;2.70;;;;;;;;;;4959668;28;20530;-77
2023/10/12 01:04:35;;;;;;;10.63;3.03;;;;;;;;;;4980704;28;20495;-77
2023/10/12 01:07:01;;;;;;;9.43;2.97;;;;;;;;;;4959690;28;20047;-77
2023/10/12 01:09:38;;;;;;;9.40;2.85;;;;;;;;;;4957664;28;20054;-77
2023/10/12 01:12:06;;;;;;;7.38;2.60;;;;;;;;;;4942612;28;20035;-77
2023/10/12 01:14:31;;;;;;;;;;;;;;;;;;4978777;28;20076;-77
2023/10/12 01:16:58;;;;;;;8.48;2.80;;;;;;;;;;4975591;28;20289;-77
2023/10/12 01:19:30;;;;;;;8.43;2.53;;;;;;;;;;4949255;28;20043;-77
2023/10/12 01:22:15;;;;;;;7.00;2.80;;;;;;;;;;4949017;28;20081;-76
2023/10/12 01:27:18;;;;;;;8.95;3.00;;;;;;;;;;4959518;28;20031;-77
2023/10/12 01:29:44;;;;;;;6.38;2.65;;;;;;;;;;4940890;28;20502;-76
2023/10/12 01:34:38;;;;;;;6.80;2.67;;;;;;;;;;4960357;28;20058;-77
2023/10/12 01:37:11;;;;;;;7.03;2.70;;;;;;;;;;4978847;28;20171;-77
2023/10/12 01:39:39;;;;;;;6.95;2.58;;;;;;;;;;4964639;28;20046;-77
2023/10/12 01:42:06;;;;;;;11.68;2.88;;;;;;;;;;4977600;28;20035;-77
2023/10/12 01:44:32;;;;;;;8.30;2.78;;;;;;;;;;4974521;28;20049;-77
2023/10/12 01:46:58;;;;;;;9.60;3.33;;;;;;;;;;4951389;28;20064;-77
2023/10/12 01:49:24;;;;;;;7.30;2.92;;;;;;;;;;4958483;28;20043;-77
2023/10/12 01:51:49;;;;;;;9.85;2.63;;;;;;;;;;4973923;28;20516;-77
2023/10/12 01:54:24;;;;;;;8.63;2.90;;;;;;;;;;4949209;28;20042;-78
2023/10/12 01:56:55;;;;;;;8.20;2.85;;;;;;;;;;4971399;28;20030;-77
2023/10/12 01:59:21;;;;;;;11.00;3.88;;;;;;;;;;4940808;28;20578;-78
2023/10/12 02:01:54;;;;;;;9.27;2.80;;;;;;;;;;4948745;28;20051;-78
2023/10/12 02:04:21;;;;;;;7.57;2.63;;;;;;;;;;4957938;28;20034;-78
2023/10/12 02:06:47;;;;;;;8.93;2.70;;;;;;;;;;4957876;28;20454;-78
2023/10/12 02:09:15;;;;;;;7.22;2.60;;;;;;;;;;4957924;28;20047;-78
2023/10/12 02:11:53;;;;;;;8.68;2.75;;;;;;;;;;4947776;28;20043;-76
2023/10/12 02:14:24;;;;;;;9.05;3.03;;;;;;;;;;4958664;28;20924;-76
2023/10/12 02:16:55;;;;;;;10.02;2.80;;;;;;;;;;4956895;28;20061;-77
2023/10/12 02:19:33;;;;;;;8.18;2.95;;;;;;;;;;4941952;28;20873;-77
2023/10/12 02:22:01;;;;;;;8.30;2.65;;;;;;;;;;4957117;28;20550;-77
2023/10/12 02:24:27;;;;;;;9.32;3.05;;;;;;;;;;4964698;28;20129;-77
2023/10/12 02:26:53;;;;;;;8.30;3.00;;;;;;;;;;4962967;28;20503;-77
2023/10/12 02:29:19;;;;;;;8.13;3.25;;;;;;;;;;4972846;28;20038;-76
2023/10/12 02:34:25;;;;;;;8.95;2.92;;;;;;;;;;4958052;28;20105;-78
2023/10/12 02:39:40;;;;;;;7.72;2.78;;;;;;;;;;4958011;28;20041;-77
2023/10/12 02:44:43;;;;;;;9.63;2.90;;;;;;;;;;4957839;28;20058;-77
2023/10/12 02:47:18;;;;;;;12.00;3.00;;;;;;;;;;4946319;28;20035;-77
2023/10/12 02:49:45;;;;;;;8.27;3.10;;;;;;;;;;4942029;28;20043;-77
2023/10/12 02:52:14;;;;;;;6.57;2.58;;;;;;;;;;4956236;28;20050;-77
2023/10/12 02:54:50;;;;;;;8.93;3.13;;;;;;;;;;4972683;28;20070;-77
2023/10/12 02:57:25;;;;;;;9.60;2.75;;;;;;;;;;4956122;28;20087;-77
2023/10/12 03:00:02;;;;;;;6.20;2.70;;;;;;;;;;4956914;28;20183;-78
2023/10/12 03:02:33;;;;;;;8.35;2.88;;;;;;;;;;4961469;28;20039;-78
2023/10/12 03:05:06;;;;;;;7.50;3.00;;;;;;;;;;4957295;28;20027;-78
2023/10/12 03:07:31;;;;;;;7.28;2.95;;;;;;;;;;4975169;28;20143;-78
2023/10/12 03:09:59;;;;;;;9.45;2.92;;;;;;;;;;4962739;28;20042;-78
2023/10/12 03:12:25;;;;;;;9.05;2.97;;;;;;;;;;4947486;28;20513;-76
2023/10/12 03:14:51;;;;;;;7.90;3.10;;;;;;;;;;4940294;28;20042;-76
2023/10/12 03:17:20;;;;;;;9.48;3.15;;;;;;;;;;4954407;28;20058;-76
2023/10/12 03:19:55;;;;;;;9.27;3.10;;;;;;;;;;4956702;28;20491;-77
2023/10/12 03:22:31;;;;;;;12.65;3.70;;;;;;;;;;4947248;28;20130;-77
2023/10/12 03:25:05;;;;;;;9.52;3.53;;;;;;;;;;4956851;28;20047;-76
2023/10/12 03:27:33;;;;;;;11.65;3.53;;;;;;;;;;4955402;28;20061;-77
2023/10/12 03:30:07;;;;;;;9.48;3.53;;;;;;;;;;4956144;28;20181;-77
2023/10/12 03:32:32;;;;;;;8.38;3.15;;;;;;;;;;4955353;28;20039;-77
2023/10/12 03:34:57;;;;;;;9.60;3.28;;;;;;;;;;4974142;28;20046;-76
2023/10/12 03:38:12;;;;;;;10.32;3.40;;;;;;;;;;4939436;28;20038;-77
2023/10/12 03:43:10;;;;;;;11.70;3.95;;;;;;;;;;4957189;28;20046;-76
2023/10/12 03:45:39;;;;;;;11.45;4.00;;;;;;;;;;4955509;28;20109;-78
2023/10/12 03:48:23;;;;;;;9.70;3.78;;;;;;;;;;4970478;28;20095;-78
2023/10/12 03:50:58;;;;;;;14.85;3.88;;;;;;;;;;4956429;28;20364;-78
2023/10/12 03:53:34;;;;;;;9.48;3.63;;;;;;;;;;4946215;28;20046;-77
2023/10/12 03:56:01;;;;;;;9.38;3.55;;;;;;;;;;4953558;28;20035;-77
2023/10/12 03:58:27;;;;;;;13.63;4.10;;;;;;;;;;4954231;28;20405;-78
2023/10/12 04:01:12;;;;;;;9.85;3.90;;;;;;;;;;4938204;28;20503;-78
2023/10/12 04:03:40;;;;;;;15.70;4.88;;;;;;;;;;4958927;28;20126;-78
2023/10/12 04:06:15;;;;;;;12.20;4.65;;;;;;;;;;4971654;28;20896;-78
2023/10/12 04:08:59;;;;;;;13.60;4.20;;;;;;;;;;4958097;28;20038;-76
2023/10/12 04:19:44;;;;;;;11.32;4.43;;;;;;;;;;4920629;28;20043;-77
2023/10/12 04:22:24;;;;;;;17.83;5.38;;;;;;;;;;4937318;28;20043;-77
2023/10/12 04:24:54;;;;;;;11.18;5.00;;;;;;;;;;4955251;28;20126;-77
2023/10/12 04:29:57;;;;;;;10.43;4.72;;;;;;;;;;4957191;28;20065;-76
2023/10/12 04:35:45;;;;;;;14.32;5.50;;;;;;;;;;4912895;29;20040;-78
2023/10/12 04:43:33;;;;;;;11.35;5.68;;;;;;;;;;4957029;28;20097;-78
2023/10/12 04:48:43;;;;;;;12.15;5.47;;;;;;;;;;4956272;28;20046;-79
2023/10/12 04:51:18;;;;;;;12.77;5.70;;;;;;;;;;4959528;28;20121;-77
2023/10/12 04:53:57;;;;;;;16.92;6.32;;;;;;;;;;4953454;28;20038;-78
2023/10/12 04:56:26;;;;;;;15.38;6.68;;;;;;;;;;4938506;28;20035;-78
2023/10/12 04:59:14;;;;;;;13.95;6.22;;;;;;;;;;4958635;28;20597;-76
2023/10/12 05:02:01;;;;;;;16.00;6.72;;;;;;;;;;4941409;28;20039;-77
2023/10/12 05:04:49;;;;;;;13.32;6.30;;;;;;;;;;4968468;28;20063;-78
2023/10/12 05:09:49;;;;;;;15.43;6.60;;;;;;;;;;4955358;28;20046;-78
2023/10/12 05:12:15;;;;;;;13.07;7.38;;;;;;;;;;4954998;28;20125;-81
2023/10/12 05:14:41;;;;;;;14.70;7.05;;;;;;;;;;4961115;28;20066;-81
2023/10/12 05:17:10;;;;;;;14.90;7.13;;;;;;;;;;4945531;28;20038;-81
2023/10/12 05:19:36;;;;;;;16.20;7.18;;;;;;;;;;4941428;28;20042;-82
2023/10/12 05:22:02;;;;;;;15.00;7.03;;;;;;;;;;4951477;28;20086;-81
2023/10/12 05:24:27;;;;;;;13.40;7.32;;;;;;;;;;4974951;28;20118;-81
2023/10/12 05:27:23;;;;;;;17.45;7.55;;;;;;;;;;4963506;28;20034;-81
2023/10/12 05:29:46;;;;;;;15.85;6.85;;;;;;;;;;4970671;28;20039;-81
2023/10/12 05:37:18;;;;;;;15.85;7.70;;;;;;;;;;4974267;28;20039;-79
2023/10/12 05:39:46;;;;;;;14.48;7.18;;;;;;;;;;4955095;28;20050;-78
2023/10/12 05:42:15;;;;;;;13.45;7.45;;;;;;;;;;4956400;28;20039;-78
2023/10/12 05:44:48;;;;;;;15.35;7.43;;;;;;;;;;4941833;28;20035;-78
2023/10/12 05:47:14;;;;;;;14.80;7.18;;;;;;;;;;4940655;28;20043;-77
2023/10/12 05:49:42;;;;;;;14.57;6.72;;;;;;;;;;4958345;28;20035;-78
2023/10/12 05:52:08;;;;;;;14.50;7.45;;;;;;;;;;4963972;28;20046;-76
2023/10/12 05:54:38;;;;;;;17.73;7.60;;;;;;;;;;4958167;28;20039;-77
2023/10/12 05:57:08;;;;;;;16.75;7.50;;;;;;;;;;4972472;28;20121;-77
2023/10/12 05:59:38;;;;;;;14.57;7.65;;;;;;;;;;4949790;28;20502;-77
2023/10/12 06:02:04;;;;;;;15.00;7.97;;;;;;;;;;4941742;28;20050;-79
2023/10/12 06:04:29;;;;;;;16.88;8.25;;;;;;;;;;4964514;28;20034;-78
2023/10/12 06:06:55;;;;;;;15.43;8.43;;;;;;;;;;4946727;28;20395;-77
2023/10/12 06:09:20;;;;;;;14.50;8.35;;;;;;;;;;4974496;28;21009;-77
2023/10/12 06:11:47;;;;;;;16.95;9.35;;;;;;;;;;4956602;28;20066;-77
2023/10/12 06:14:20;;;;;;;17.98;8.93;;;;;;;;;;4957735;28;20118;-78
2023/10/12 06:16:54;;;;;;;16.38;9.07;;;;;;;;;;4956185;28;20043;-78
2023/10/12 06:19:26;;;;;;;17.10;9.68;;;;;;;;;;4956302;28;20064;-78
2023/10/12 06:21:52;;;;;;;21.33;9.90;;;;;;;;;;4941685;28;20035;-78
2023/10/12 06:24:21;;;;;;;22.30;10.13;;;;;;;;;;4957297;28;20390;-77
2023/10/12 06:26:47;;;;;;;21.85;11.45;;;;;;;;;;4949433;28;20042;-79
2023/10/12 06:29:24;;;;;;;23.50;12.40;;;;;;;;;;4964074;28;20122;-77
2023/10/12 06:31:52;;;;;;;20.17;10.70;;;;;;;;;;4948073;28;20023;-77
2023/10/12 06:34:19;;;;;;;;;;;;;;;;;;4940379;28;20043;-77
2023/10/12 06:36:46;;;;;;;19.85;10.60;;;;;;;;;;4959921;28;20305;-78
2023/10/12 06:46:50;;;;;;;19.73;10.23;;;;;;;;;;4956723;28;20027;-78
2023/10/12 06:49:18;;;;;;;22.45;11.57;;;;;;;;;;4974166;28;20034;-79
2023/10/12 06:54:49;;;;;;;19.50;10.52;;;;;;;;;;4942931;28;20027;-78
2023/10/12 06:59:54;;;;;;;18.48;10.50;;;;;;;;;;4958600;28;20070;-79
2023/10/12 07:02:24;;;;;;;19.63;10.60;;;;;;;;;;4961575;28;20487;-76
2023/10/12 07:04:55;;;;;;;18.40;9.63;;;;;;;;;;4940427;28;20443;-78
2023/10/12 07:07:27;;;;;;;15.43;9.63;;;;;;;;;;4956109;28;20108;-77
2023/10/12 07:09:54;;;;;;;18.85;9.95;;;;;;;;;;4922060;28;20449;-77
2023/10/12 07:12:20;;;;;;;16.02;8.88;;;;;;;;;;4959907;28;20673;-78
2023/10/12 07:14:57;;;;;;;15.68;9.57;;;;;;;;;;4940237;28;20041;-78
2023/10/12 07:17:31;;;;;;;17.05;9.00;;;;;;;;;;4956206;28;20508;-79
2023/10/12 07:19:57;;;;;;;17.45;8.80;;;;;;;;;;4934878;28;20588;-78
2023/10/12 07:22:23;;;;;;;15.23;8.32;;;;;;;;;;4955796;28;20051;-77
2023/10/12 07:24:56;;;;;;;16.63;8.98;;;;;;;;;;4973671;28;20038;-78
2023/10/12 07:27:25;;;;;;;14.25;8.73;;;;;;;;;;4960175;28;20045;-78
2023/10/12 07:32:39;;;;;;;15.18;8.48;;;;;;;;;;4955266;28;20394;-77
2023/10/12 07:35:18;;;;;;;15.48;7.65;;;;;;;;;;4959046;28;20060;-78
2023/10/12 07:37:44;;;;;;;14.40;8.32;;;;;;;;;;4966926;28;20039;-78
2023/10/12 07:40:22;;;;;;;16.50;8.30;;;;;;;;;;4957747;28;20537;-77
2023/10/12 07:42:47;;;;;;;12.45;7.60;;;;;;;;;;4956648;28;20042;-77
2023/10/12 07:45:17;;;;;;;14.18;7.45;;;;;;;;;;4955636;28;20031;-77
2023/10/12 07:47:46;;;;;;;14.20;7.35;;;;;;;;;;4931771;28;20026;-78
2023/10/12 07:50:15;;;;;;;11.90;6.78;;;;;;;;;;4955418;28;20420;-78
2023/10/12 07:52:53;;;;;;;12.43;7.07;;;;;;;;;;4956533;28;20038;-78
2023/10/12 07:55:19;;;;;;;12.95;7.13;;;;;;;;;;4960075;28;20035;-78
2023/10/12 07:57:46;;;;;;;16.83;7.18;;;;;;;;;;4970371;28;20644;-78
2023/10/12 08:05:24;;;;;;;13.50;6.93;;;;;;;;;;4956400;28;20041;-82
2023/10/12 08:13:26;;;;;;;3.53;1.30;;;;;;;;;;4904946;29;20059;-78
2023/10/12 08:15:56;;;;;;;4.85;1.15;;;;;;;;;;4903371;29;20574;-78
2023/10/12 08:23:49;;;;;;;4.03;1.25;;;;;;;;;;4886806;29;20528;-79
2023/10/12 08:26:35;;;;;;;5.65;1.27;;;;;;;;;;4879537;29;20046;-78
2023/10/12 08:29:08;;;;;;;4.65;1.20;;;;;;;;;;4877211;29;20040;-78
2023/10/12 08:31:44;;;;;;;5.50;1.10;;;;;;;;;;4894499;29;20036;-79
2023/10/12 08:39:50;;;;;;;5.97;1.40;;;;;;;;;;4889791;29;20135;-79
2023/10/12 08:45:06;;;;;;;6.50;1.40;;;;;;;;;;4891038;29;20032;-78
2023/10/12 08:52:31;;;;;;;7.50;1.85;;;;;;;;;;4949430;28;20034;-77
2023/10/12 08:55:13;;;;;;;6.38;1.77;;;;;;;;;;4960457;28;20031;-76
2023/10/12 08:58:01;;;;;;;9.00;1.80;;;;;;;;;;4950456;28;20046;-77
2023/10/12 09:03:24;;;;;;;8.88;1.48;;;;;;;;;;4957827;28;20034;-78
2023/10/12 09:05:54;;;;;;;10.25;1.48;;;;;;;;;;4978021;28;20035;-79
2023/10/12 09:10:49;;;;;;;5.50;1.00;;;;;;;;;;4958605;28;20039;-78
2023/10/12 09:13:30;;;;;;;10.70;1.92;;;;;;;;;;4974185;28;20417;-77
2023/10/12 09:15:58;;;;;;;11.15;1.45;;;;;;;;;;4967438;28;20061;-77
2023/10/12 09:18:30;;;;;;;6.30;1.30;;;;;;;;;;4964657;28;20570;-78
2023/10/12 09:23:33;;;;;;;8.55;1.70;;;;;;;;;;4957875;28;20348;-78
2023/10/12 09:26:30;;;;;;;11.75;1.58;;;;;;;;;;4974486;28;20049;-77
2023/10/12 09:36:45;;;;;;;12.82;1.55;;;;;;;;;;4904440;29;20043;-77
2023/10/12 09:39:14;;;;;;;9.00;1.42;;;;;;;;;;4903206;29;20739;-77
2023/10/12 09:41:55;;;;;;;8.65;1.63;;;;;;;;;;4891902;29;20599;-78
2023/10/12 09:44:26;;;;;;;10.23;2.03;;;;;;;;;;4908991;29;20413;-78
2023/10/12 09:46:57;;;;;;;11.80;1.45;;;;;;;;;;4899381;29;20518;-78
2023/10/12 09:49:30;;;;;;;9.35;1.48;;;;;;;;;;4902578;29;20519;-77
2023/10/12 09:52:00;;;;;;;8.07;1.33;;;;;;;;;;4923652;29;20040;-78
2023/10/12 09:54:45;;;;;;;8.02;1.20;;;;;;;;;;4909023;29;20542;-78
2023/10/12 09:57:16;;;;;;;8.00;1.17;;;;;;;;;;4914526;29;20177;-78
2023/10/12 09:59:51;;;;;;;7.22;1.55;;;;;;;;;;4923033;29;20476;-78
2023/10/12 10:02:28;;;;;;;6.93;1.33;;;;;;;;;;4903750;29;20128;-77
2023/10/12 10:05:51;;;;;;;8.50;1.60;;;;;;;;;;4923313;28;20035;-77
2023/10/12 10:07:53;;;;;;;6.05;1.27;;;;;;;;;;4948809;28;20045;-77
2023/10/12 10:10:34;;;;;;;11.27;1.40;;;;;;;;;;4963696;28;20055;-76
2023/10/12 10:13:00;;;;;;;8.32;1.35;;;;;;;;;;4970276;28;20027;-78
2023/10/12 10:15:38;;;;;;;7.35;1.58;;;;;;;;;;4958280;28;20621;-77
2023/10/12 10:18:07;;;;;;;6.85;1.15;;;;;;;;;;4963443;28;20117;-77
2023/10/12 10:20:46;;;;;;;7.38;1.25;;;;;;;;;;4956960;28;20037;-78
2023/10/12 10:23:14;;;;;;;6.15;1.70;;;;;;;;;;4948217;28;20503;-77
2023/10/12 10:25:45;;;;;;;;;;;;;;;;;;4965800;28;20122;-76
2023/10/12 10:28:23;;;;;;;11.68;1.95;;;;;;;;;;4972880;28;20331;-78
2023/10/12 10:30:56;;;;;;;;;;;;;;;;;;4957557;28;20522;-78
2023/10/12 10:33:24;;;;;;;5.35;1.30;;;;;;;;;;4941681;28;19918;-77
2023/10/12 10:35:56;;;;;;;9.75;1.30;;;;;;;;;;4957166;28;20097;-77
2023/10/12 10:38:23;;;;;;;11.02;1.40;;;;;;;;;;4959048;28;20692;-78
2023/10/12 10:40:49;;;;;;;7.93;1.43;;;;;;;;;;4961182;28;20041;-77
2023/10/12 10:43:15;;;;;;;6.72;1.40;;;;;;;;;;4958352;28;20921;-78
2023/10/12 10:45:42;;;;;;;9.00;1.20;;;;;;;;;;4956204;28;20206;-78
2023/10/12 10:48:14;;;;;;;7.55;1.17;;;;;;;;;;4979434;28;20054;-78
2023/10/12 10:50:49;;;;;;;8.30;1.70;;;;;;;;;;4941967;28;20122;-77
2023/10/12 10:53:15;;;;;;;8.57;1.65;;;;;;;;;;4956565;28;20750;-77
2023/10/12 10:55:41;;;;;;;7.95;1.00;;;;;;;;;;4954596;28;20119;-77
2023/10/12 10:58:09;;;;;;;8.38;1.40;;;;;;;;;;4957390;28;20030;-79
2023/10/12 11:00:36;;;;;;;10.20;1.45;;;;;;;;;;4946308;28;20038;-78
2023/10/12 11:03:05;;;;;;;5.38;1.08;;;;;;;;;;4958887;28;20042;-78
2023/10/12 11:05:30;;;;;;;8.73;1.65;;;;;;;;;;4946202;28;20456;-77
2023/10/12 11:08:15;;;;;;;10.05;1.60;;;;;;;;;;4947272;28;20074;-78
2023/10/12 11:11:14;;;;;;;10.20;1.50;;;;;;;;;;4957811;28;20053;-77
2023/10/12 11:13:26;;;;;;;7.85;1.05;;;;;;;;;;4964411;28;20048;-78
2023/10/12 11:15:52;;;;;;;5.13;1.17;;;;;;;;;;4939122;28;20031;-77
2023/10/12 11:18:18;;;;;;;8.43;1.20;;;;;;;;;;4971894;28;20039;-77
2023/10/12 11:20:46;;;;;;;10.77;1.63;;;;;;;;;;4957617;28;20036;-78
2023/10/12 11:23:12;;;;;;;9.13;1.38;;;;;;;;;;4957251;28;20038;-77
2023/10/12 11:25:41;;;;;;;11.50;2.28;;;;;;;;;;4956287;28;20050;-79
2023/10/12 11:28:21;;;;;;;7.75;1.30;;;;;;;;;;4957670;28;20039;-77
2023/10/12 11:30:48;;;;;;;12.25;1.63;;;;;;;;;;4961297;28;20062;-77
2023/10/12 11:33:16;;;;;;;;;;;;;;;;;;4938156;28;20039;-77
2023/10/12 11:35:43;;;;;;;7.75;1.75;;;;;;;;;;4956657;28;20323;-78
2023/10/12 11:38:17;;;;;;;7.47;1.25;;;;;;;;;;4972103;28;20499;-77
2023/10/12 11:40:51;;;;;;;10.27;1.38;;;;;;;;;;4951965;28;20066;-78
2023/10/12 11:43:16;;;;;;;10.30;1.70;;;;;;;;;;4955593;28;20042;-78
2023/10/12 11:46:01;;;;;;;6.05;1.15;;;;;;;;;;4957447;28;20086;-78
2023/10/12 11:48:28;;;;;;;7.97;1.35;;;;;;;;;;4945921;28;20045;-78
2023/10/12 11:50:55;;;;;;;10.95;2.28;;;;;;;;;;4955422;28;20416;-77
2023/10/12 11:53:21;;;;;;;11.18;1.60;;;;;;;;;;4962919;28;20046;-77
2023/10/12 11:55:49;;;;;;;8.52;1.50;;;;;;;;;;4971903;28;20475;-78
2023/10/12 11:58:19;;;;;;;15.00;1.90;;;;;;;;;;4939759;28;20526;-78
2023/10/12 12:00:48;;;;;;;10.82;1.95;;;;;;;;;;4955643;28;20122;-79
2023/10/12 12:03:14;;;;;;;17.80;4.90;;;;;;;;;;4956100;28;20043;-78
2023/10/12 12:05:41;;;;;;;10.30;1.30;;;;;;;;;;4955673;28;20514;-78
2023/10/12 12:08:15;;;;;;;12.98;3.65;;;;;;;;;;4955699;28;20036;-77
2023/10/12 12:13:20;;;;;;;10.25;1.65;;;;;;;;;;4957913;28;20097;-78
2023/10/12 12:15:46;;;;;;;10.23;1.80;;;;;;;;;;4946535;28;20249;-77
2023/10/12 12:18:19;;;;;;;9.73;1.73;;;;;;;;;;4945905;28;20438;-77
2023/10/12 12:20:58;;;;;;;8.98;1.85;;;;;;;;;;4954796;28;20035;-77
2023/10/12 12:23:28;;;;;;;10.25;1.58;;;;;;;;;;4960010;28;20112;-77
2023/10/12 12:25:59;;;;;;;9.02;1.42;;;;;;;;;;4954785;28;20043;-77
2023/10/12 12:28:31;;;;;;;6.95;1.17;;;;;;;;;;4955936;28;20035;-77
2023/10/12 12:31:00;;;;;;;7.07;1.15;;;;;;;;;;4960765;28;20062;-77
2023/10/12 12:33:27;;;;;;;8.02;1.40;;;;;;;;;;4955245;28;20042;-77
2023/10/12 12:36:07;;;;;;;10.60;2.42;;;;;;;;;;4952556;28;20530;-78
2023/10/12 12:40:58;;;;;;;6.75;1.13;;;;;;;;;;4971522;28;20054;-77
2023/10/12 12:43:24;;;;;;;9.32;1.40;;;;;;;;;;4961028;28;20478;-77
2023/10/12 12:45:52;;;;;;;8.57;1.70;;;;;;;;;;4943296;28;20040;-77
2023/10/12 12:48:19;;;;;;;7.30;1.30;;;;;;;;;;4939443;28;20114;-78
2023/10/12 12:50:45;;;;;;;10.05;1.75;;;;;;;;;;4938531;28;20042;-78
2023/10/12 12:53:11;;;;;;;10.75;1.58;;;;;;;;;;4952956;28;20371;-78
2023/10/12 12:55:38;;;;;;;8.70;1.52;;;;;;;;;;4952741;28;20097;-78
2023/10/12 12:58:14;;;;;;;9.17;1.60;;;;;;;;;;4954433;28;20120;-78
2023/10/12 13:00:40;;;;;;;6.03;1.50;;;;;;;;;;4944955;28;20187;-77
2023/10/12 13:03:05;;;;;;;7.03;1.58;;;;;;;;;;4970048;28;20032;-78
2023/10/12 13:05:34;;;;;;;8.70;1.70;;;;;;;;;;4939179;28;20570;-77
2023/10/12 13:08:07;;;;;;;8.02;1.52;;;;;;;;;;4972428;28;20086;-77
2023/10/12 13:10:35;;;;;;;8.88;1.50;;;;;;;;;;4960013;28;20090;-77
2023/10/12 13:13:01;;;;;;;6.22;1.20;;;;;;;;;;4960705;28;20146;-77
2023/10/12 13:15:27;;;;;;;8.18;1.95;;;;;;;;;;4954602;28;20118;-78
2023/10/12 13:17:52;;;;;;;8.63;1.65;;;;;;;;;;4943049;28;20039;-77
2023/10/12 13:20:21;;;;;;;6.85;2.00;;;;;;;;;;4968968;28;20027;-77
2023/10/12 13:22:48;;;;;;;9.20;1.45;;;;;;;;;;4953577;28;20138;-77
2023/10/12 13:25:17;;;;;;;6.90;1.95;;;;;;;;;;4946795;28;20088;-78
2023/10/12 13:27:51;;;;;;;8.65;1.80;;;;;;;;;;4944055;28;20439;-78
2023/10/12 13:30:17;;;;;;;9.88;1.65;;;;;;;;;;4938016;28;20045;-78
2023/10/12 13:32:43;;;;;;;7.53;1.40;;;;;;;;;;4937121;28;20044;-79
2023/10/12 13:35:18;;;;;;;7.68;1.98;;;;;;;;;;4965234;28;20043;-77
2023/10/12 13:37:51;;;;;;;7.15;1.30;;;;;;;;;;4935776;28;20045;-77
2023/10/12 13:40:17;;;;;;;6.20;1.33;;;;;;;;;;4960045;28;20061;-77
2023/10/12 13:42:50;;;;;;;8.15;1.40;;;;;;;;;;4961936;28;20070;-77
2023/10/12 13:45:18;;;;;;;9.63;1.55;;;;;;;;;;4953108;28;20103;-77
2023/10/12 13:47:47;;;;;;;8.85;1.90;;;;;;;;;;4962561;28;20035;-78
2023/10/12 13:50:14;;;;;;;9.75;1.70;;;;;;;;;;4979479;28;20440;-78
2023/10/12 13:52:41;;;;;;;7.00;1.33;;;;;;;;;;4960868;28;20494;-78
2023/10/12 13:55:11;;;;;;;9.50;1.50;;;;;;;;;;4947914;28;20042;-78
2023/10/12 13:57:57;;;;;;;10.13;1.75;;;;;;;;;;4937102;28;20049;-78
2023/10/12 14:00:26;;;;;;;9.43;1.55;;;;;;;;;;4973742;28;20129;-77
2023/10/12 14:02:54;;;;;;;5.63;1.83;;;;;;;;;;4956201;28;20499;-77
2023/10/12 14:05:29;;;;;;;9.07;1.60;;;;;;;;;;4946536;28;20051;-77
2023/10/12 14:07:58;;;;;;;9.27;1.50;;;;;;;;;;4953835;28;20551;-77
2023/10/12 14:10:24;;;;;;;7.60;1.70;;;;;;;;;;4894663;28;1511903;-77
2023/10/12 14:12:53;;;;;;;8.50;1.60;;;;;;;;;;4950008;28;20505;-77
2023/10/12 14:15:20;;;;;;;10.75;1.60;;;;;;;;;;4975367;28;20038;-77
2023/10/12 14:17:45;;;;;;;10.38;1.60;;;;;;;;;;4972124;28;20042;-78
2023/10/12 14:20:12;;;;;;;10.38;1.70;;;;;;;;;;4935955;28;20039;-77
2023/10/12 14:22:37;;;;;;;10.23;1.65;;;;;;;;;;4973882;28;20518;-78
2023/10/12 14:25:06;;;;;;;9.18;1.77;;;;;;;;;;4955486;28;20043;-78
2023/10/12 14:27:33;;;;;;;11.15;1.67;;;;;;;;;;4934793;28;20031;-78
2023/10/12 14:30:13;;;;;;;10.68;2.55;;;;;;;;;;4948864;28;20039;-78
2023/10/12 14:32:39;;;;;;;6.72;1.60;;;;;;;;;;4940979;28;20439;-78
2023/10/12 14:35:05;;;;;;;9.75;1.63;;;;;;;;;;4974162;28;20039;-78
2023/10/12 14:37:36;;;;;;;13.48;2.20;;;;;;;;;;4955970;28;20042;-79
2023/10/12 14:40:10;;;;;;;8.38;1.65;;;;;;;;;;4942241;28;20038;-78
2023/10/12 14:42:39;;;;;;;10.18;1.83;;;;;;;;;;4973869;28;20074;-78
2023/10/12 14:45:06;;;;;;;6.38;1.42;;;;;;;;;;4954923;28;20030;-78
2023/10/12 14:47:35;;;;;;;6.43;1.50;;;;;;;;;;4957276;28;20039;-78
2023/10/12 14:50:05;;;;;;;9.07;1.52;;;;;;;;;;4942144;28;20394;-79
2023/10/12 14:52:38;;;;;;;9.60;1.90;;;;;;;;;;4931745;28;20094;-78
2023/10/12 14:55:10;;;;;;;15.23;2.72;;;;;;;;;;4946472;28;20039;-78
2023/10/12 14:57:39;;;;;;;12.32;1.60;;;;;;;;;;4958698;28;20655;-79
2023/10/12 15:00:14;;;;;;;12.98;1.90;;;;;;;;;;4956359;28;20042;-78
2023/10/12 15:02:41;;;;;;;12.13;1.73;;;;;;;;;;4955619;28;20455;-78
2023/10/12 15:05:11;;;;;;;9.90;2.22;;;;;;;;;;4947448;28;20035;-78
2023/10/12 15:07:37;;;;;;;9.50;1.90;;;;;;;;;;4940091;28;20122;-78
2023/10/12 15:10:07;;;;;;;10.55;1.90;;;;;;;;;;4956836;28;20077;-77
2023/10/12 15:12:33;;;;;;;7.13;1.80;;;;;;;;;;4961712;28;20466;-78
2023/10/12 15:15:08;;;;;;;9.90;1.63;;;;;;;;;;4964410;28;20122;-78
2023/10/12 15:17:40;;;;;;;9.07;2.28;;;;;;;;;;4940286;28;20154;-79
2023/10/12 15:20:12;;;;;;;6.43;1.60;;;;;;;;;;4956140;28;20062;-76
2023/10/12 15:22:38;;;;;;;6.78;1.17;;;;;;;;;;4941479;28;20541;-77
2023/10/12 15:25:05;;;;;;;10.30;1.75;;;;;;;;;;4939998;28;20026;-77
2023/10/12 15:27:32;;;;;;;12.05;1.85;;;;;;;;;;4956249;28;20042;-77
2023/10/12 15:29:59;;;;;;;9.88;1.55;;;;;;;;;;4940811;28;20408;-77
2023/10/12 15:32:28;;;;;;;8.68;1.83;;;;;;;;;;4946146;28;20035;-78
2023/10/12 15:34:56;;;;;;;10.50;1.60;;;;;;;;;;4942829;28;20494;-78
2023/10/12 15:37:24;;;;;;;11.57;2.08;;;;;;;;;;4955742;28;20043;-77
2023/10/12 15:39:53;;;;;;;10.05;2.15;;;;;;;;;;4939522;28;20434;-77
2023/10/12 15:42:19;;;;;;;13.50;2.53;;;;;;;;;;4947031;28;20562;-76
2023/10/12 15:44:44;;;;;;;11.25;1.83;;;;;;;;;;4946953;28;20039;-77
2023/10/12 15:47:10;;;;;;;10.32;1.50;;;;;;;;;;4943577;28;20110;-77
2023/10/12 15:49:35;;;;;;;9.15;1.70;;;;;;;;;;4947435;28;20059;-77
2023/10/12 15:52:01;;;;;;;8.60;1.73;;;;;;;;;;4936861;28;20037;-77
2023/10/12 15:54:34;;;;;;;10.10;1.92;;;;;;;;;;4956759;28;20035;-77
2023/10/12 15:57:00;;;;;;;8.90;1.98;;;;;;;;;;4961765;28;20062;-77
2023/10/12 15:59:27;;;;;;;7.88;1.60;;;;;;;;;;4954796;28;20114;-77
2023/10/12 16:01:53;;;;;;;10.48;2.05;;;;;;;;;;4955563;28;20038;-77
2023/10/12 16:04:19;;;;;;;8.55;1.88;;;;;;;;;;4945568;28;20043;-77
2023/10/12 16:06:46;;;;;;;8.25;1.65;;;;;;;;;;4970467;28;20046;-77
2023/10/12 16:09:20;;;;;;;8.38;1.55;;;;;;;;;;4937190;28;20039;-77
2023/10/12 16:11:48;;;;;;;11.93;1.90;;;;;;;;;;4955693;28;20046;-78
2023/10/12 16:14:17;;;;;;;7.35;1.55;;;;;;;;;;4971875;28;20038;-77
2023/10/12 16:16:44;;;;;;;11.55;2.22;;;;;;;;;;4953325;28;20658;-76
2023/10/12 16:19:12;;;;;;;8.30;1.70;;;;;;;;;;4954515;28;20031;-77
2023/10/12 16:21:38;;;;;;;8.18;1.67;;;;;;;;;;4955974;28;20035;-77
2023/10/12 16:24:06;;;;;;;11.25;2.25;;;;;;;;;;4961465;28;20050;-78
2023/10/12 16:26:31;;;;;;;10.23;2.30;;;;;;;;;;4944576;28;20085;-77
2023/10/12 16:29:00;;;;;;;8.18;1.83;;;;;;;;;;4938761;28;20495;-78
2023/10/12 16:31:34;;;;;;;9.60;2.00;;;;;;;;;;4935039;28;20625;-77
2023/10/12 16:34:00;;;;;;;9.93;1.92;;;;;;;;;;4954151;28;20047;-78
2023/10/12 16:36:26;;;;;;;10.65;2.13;;;;;;;;;;4952339;28;20047;-78
2023/10/12 16:38:51;;;;;;;9.25;1.80;;;;;;;;;;4947777;28;20105;-78
2023/10/12 16:41:17;;;;;;;10.38;2.42;;;;;;;;;;4948327;28;20569;-77
2023/10/12 16:43:43;;;;;;;12.35;2.35;;;;;;;;;;4955077;28;20045;-77
2023/10/12 16:46:15;;;;;;;11.02;1.85;;;;;;;;;;4957062;28;20051;-77
2023/10/12 16:48:41;;;;;;;8.15;1.80;;;;;;;;;;4961644;28;20384;-78
2023/10/12 16:51:07;;;;;;;7.03;2.00;;;;;;;;;;4953291;28;20049;-77